Terminal Aerodrome Forecast
Issued by NWS

Home | Current Version | Previous Version | Text Only | Print | Product List | Glossary On
Versions: 1 2 3 4 5 6 7 8 9 10 11 12 13 14 15 16
576
FTAK31 PAJN 252320
TAFAKT
TAF
PAKT 252320Z 2600/2624 33005KT P6SM SCT008 BKN020 OVC030
      TEMPO 2600/2604 3SM -RA BR BKN008 OVC012
     FM260400 14012KT 3SM -RA BR OVC008
     FM261200 14012G22KT 4SM -RA BR BKN010 BKN025 OVC060
      WS020/16040KT
      AMD LTD TO CLD VIS AND WIND 2606/2615=

USA.gov is the U.S. government's official web portal to all federal, state and local government web resources and services.